createdAt,value
2022-10-19T00:02:05.496Z,4.43
2022-10-19T00:06:58.292Z,4.03
2022-10-19T00:09:24.831Z,4.20
2022-10-19T00:11:52.521Z,3.95
2022-10-19T00:14:23.165Z,4.18
2022-10-19T00:16:51.345Z,4.45
2022-10-19T00:19:25.233Z,4.20
2022-10-19T00:21:51.977Z,4.07
2022-10-19T00:24:18.986Z,4.18
2022-10-19T00:26:45.794Z,3.90
2022-10-19T00:29:14.634Z,4.22
2022-10-19T00:31:41.579Z,4.13
2022-10-19T00:34:07.994Z,4.25
2022-10-19T00:36:37.983Z,4.30
2022-10-19T00:39:06.716Z,3.97
2022-10-19T00:41:35.807Z,4.05
2022-10-19T00:44:12.593Z,3.85
2022-10-19T00:46:44.543Z,3.72
2022-10-19T00:49:13.936Z,3.95
2022-10-19T00:51:43.976Z,4.03
2022-10-19T00:54:11.718Z,3.95
2022-10-19T00:56:40.788Z,4.03
2022-10-19T00:59:09.393Z,4.10
2022-10-19T01:01:36.381Z,4.18
2022-10-19T01:04:03.932Z,3.88
2022-10-19T01:06:31.106Z,3.90
2022-10-19T01:08:57.508Z,4.20
2022-10-19T01:11:36.696Z,3.75
2022-10-19T01:14:09.992Z,4.22
2022-10-19T01:16:42.412Z,4.35
2022-10-19T01:19:27.684Z,4.25
2022-10-19T01:22:14.000Z,4.18
2022-10-19T01:25:06.593Z,4.00
2022-10-19T01:27:53.017Z,4.40
2022-10-19T01:30:30.040Z,5.03
2022-10-19T01:35:39.324Z,4.15
2022-10-19T01:38:29.522Z,4.25
2022-10-19T01:41:20.366Z,4.20
2022-10-19T01:44:01.165Z,3.97
2022-10-19T01:46:36.269Z,4.97
2022-10-19T01:49:10.177Z,5.22
2022-10-19T01:51:43.789Z,4.65
2022-10-19T01:54:14.472Z,4.72
2022-10-19T01:56:43.921Z,4.75
2022-10-19T01:59:12.201Z,4.40
2022-10-19T02:01:43.881Z,4.95
2022-10-19T02:04:13.080Z,3.97
2022-10-19T02:06:40.192Z,4.10
2022-10-19T02:09:07.026Z,4.00
2022-10-19T02:11:35.484Z,3.97
2022-10-19T02:14:07.609Z,3.92
2022-10-19T02:16:40.564Z,4.18
2022-10-19T02:19:09.741Z,4.90
2022-10-19T02:21:36.310Z,3.78
2022-10-19T02:26:29.166Z,4.47
2022-10-19T02:28:56.287Z,4.15
2022-10-19T02:31:23.421Z,4.20
2022-10-19T02:33:49.982Z,3.90
2022-10-19T02:38:43.977Z,4.05
2022-10-19T02:41:14.370Z,4.00
2022-10-19T02:43:43.466Z,3.80
2022-10-19T02:46:23.788Z,4.15
2022-10-19T02:48:51.690Z,4.53
2022-10-19T02:51:32.570Z,4.18
2022-10-19T02:54:01.214Z,4.15
2022-10-19T02:56:30.783Z,4.60
2022-10-19T03:01:23.853Z,4.70
2022-10-19T03:03:50.388Z,4.60
2022-10-19T03:08:43.381Z,4.00
2022-10-19T03:11:10.053Z,4.72
2022-10-19T03:13:36.493Z,4.35
2022-10-19T03:16:07.581Z,4.00
2022-10-19T03:18:34.105Z,4.10
2022-10-19T03:21:09.378Z,5.70
2022-10-19T03:23:35.985Z,4.38
2022-10-19T03:28:29.609Z,4.45
2022-10-19T03:30:56.271Z,4.65
2022-10-19T03:33:23.492Z,4.15
2022-10-19T03:35:50.439Z,3.97
2022-10-19T03:38:17.346Z,4.05
2022-10-19T03:40:43.715Z,4.80
2022-10-19T03:43:10.197Z,4.10
2022-10-19T03:45:36.613Z,3.60
2022-10-19T03:48:03.120Z,3.88
2022-10-19T03:52:55.924Z,3.97
2022-10-19T03:55:22.399Z,3.80
2022-10-19T03:57:48.853Z,3.95
2022-10-19T04:00:15.699Z,4.00
2022-10-19T04:02:42.100Z,5.25
2022-10-19T04:05:08.698Z,5.13
2022-10-19T04:07:35.369Z,4.85
2022-10-19T04:10:01.899Z,5.50
2022-10-19T04:12:28.293Z,4.68
2022-10-19T04:14:58.008Z,5.10
2022-10-19T04:17:25.386Z,5.82
2022-10-19T04:19:51.789Z,5.82
2022-10-19T04:22:18.237Z,6.10
2022-10-19T04:24:44.620Z,6.97
2022-10-19T04:27:11.097Z,5.70
2022-10-19T04:29:37.586Z,5.13
2022-10-19T04:34:30.322Z,5.07
2022-10-19T04:36:59.270Z,4.57
2022-10-19T04:39:25.739Z,5.25
2022-10-19T04:43:15.048Z,7.10
2022-10-19T04:45:41.454Z,7.00
2022-10-19T04:48:07.896Z,7.10
2022-10-19T04:50:34.434Z,8.15
2022-10-19T04:55:27.296Z,10.90
2022-10-19T04:57:53.754Z,11.07
2022-10-19T05:00:20.168Z,11.50
2022-10-19T05:02:46.985Z,10.13
2022-10-19T05:05:14.661Z,10.63
2022-10-19T05:07:41.364Z,11.45
2022-10-19T05:10:08.908Z,10.98
2022-10-19T05:12:36.261Z,10.85
2022-10-19T05:15:03.785Z,9.57
2022-10-19T05:17:32.035Z,8.98
2022-10-19T05:19:58.806Z,7.60
2022-10-19T05:22:25.230Z,8.35
2022-10-19T05:24:54.537Z,8.93
2022-10-19T05:27:23.891Z,8.27
2022-10-19T05:29:50.275Z,8.15
2022-10-19T05:32:16.760Z,6.85
2022-10-19T05:34:43.327Z,6.38
2022-10-19T05:39:36.161Z,8.07
2022-10-19T05:42:02.609Z,10.40
2022-10-19T05:44:29.144Z,10.50
2022-10-19T05:49:22.529Z,10.00
2022-10-19T05:51:50.553Z,10.48
2022-10-19T05:54:17.137Z,10.85
2022-10-19T05:59:16.005Z,11.85
2022-10-19T06:01:42.560Z,11.43
2022-10-19T06:06:37.393Z,13.25
2022-10-19T06:09:04.026Z,15.18
2022-10-19T06:16:27.097Z,14.68
2022-10-19T06:18:54.096Z,14.05
2022-10-19T06:21:23.312Z,11.80
2022-10-19T06:23:51.613Z,13.82
2022-10-19T06:26:18.399Z,12.50
2022-10-19T06:28:45.403Z,11.63
2022-10-19T06:31:13.480Z,10.23
2022-10-19T06:33:41.014Z,11.35
2022-10-19T06:36:15.819Z,10.07
2022-10-19T06:38:43.397Z,11.82
2022-10-19T06:41:10.858Z,10.88
2022-10-19T06:43:37.439Z,13.32
2022-10-19T06:48:38.353Z,10.70
2022-10-19T06:51:09.112Z,9.23
2022-10-19T06:53:36.253Z,10.18
2022-10-19T06:56:05.784Z,11.23
2022-10-19T06:58:36.137Z,12.55
2022-10-19T07:01:04.592Z,11.40
2022-10-19T07:03:31.052Z,12.60
2022-10-19T07:06:02.124Z,14.48
2022-10-19T07:08:30.428Z,12.40
2022-10-19T07:11:00.186Z,11.25
2022-10-19T07:13:28.331Z,11.35
2022-10-19T07:16:01.132Z,10.90
2022-10-19T07:18:27.555Z,11.25
2022-10-19T07:20:58.937Z,11.07
2022-10-19T07:23:27.521Z,10.15
2022-10-19T07:26:01.420Z,10.63
2022-10-19T07:28:29.969Z,10.52
2022-10-19T07:30:56.673Z,9.25
2022-10-19T07:33:23.681Z,9.75
2022-10-19T07:35:50.200Z,9.93
2022-10-19T07:38:16.810Z,9.77
2022-10-19T07:40:46.403Z,7.20
2022-10-19T07:43:13.973Z,8.23
2022-10-19T07:45:40.347Z,6.72
2022-10-19T07:48:06.858Z,7.80
2022-10-19T07:52:59.621Z,7.25
2022-10-19T07:55:26.053Z,7.68
2022-10-19T07:57:52.466Z,8.07
2022-10-19T08:00:18.987Z,8.80
2022-10-19T08:05:34.946Z,9.95
2022-10-19T08:08:01.399Z,10.43
2022-10-19T08:10:28.284Z,10.55
2022-10-19T08:12:54.713Z,9.68
2022-10-19T08:15:21.186Z,11.02
2022-10-19T08:20:13.887Z,10.63
2022-10-19T08:22:41.787Z,12.02
2022-10-19T08:25:08.470Z,11.13
2022-10-19T08:30:06.722Z,11.38
2022-10-19T08:32:33.406Z,13.00
2022-10-19T08:34:59.935Z,12.93
2022-10-19T08:37:40.731Z,12.75
2022-10-19T08:40:25.855Z,11.18
2022-10-19T08:43:13.429Z,11.77
2022-10-19T08:45:50.806Z,12.30
2022-10-19T08:48:29.604Z,11.52
2022-10-19T08:50:58.216Z,12.10
2022-10-19T08:53:37.428Z,12.52
2022-10-19T08:56:45.630Z,11.38
2022-10-19T08:59:27.118Z,12.30
2022-10-19T09:02:01.502Z,11.85
2022-10-19T09:04:41.821Z,12.98
2022-10-19T09:07:34.625Z,13.32
2022-10-19T09:10:16.761Z,14.85
2022-10-19T09:12:58.768Z,14.07
2022-10-19T09:15:33.392Z,13.57
2022-10-19T09:18:02.053Z,13.95
2022-10-19T09:20:41.168Z,13.80
2022-10-19T09:23:24.785Z,14.75
2022-10-19T09:25:52.261Z,13.23
2022-10-19T09:28:36.490Z,13.73
2022-10-19T09:31:10.818Z,13.25
2022-10-19T09:33:39.500Z,13.88
2022-10-19T09:36:07.465Z,13.27
2022-10-19T09:38:34.022Z,13.27
2022-10-19T09:43:39.707Z,12.98
2022-10-19T09:46:20.297Z,13.73
2022-10-19T09:48:52.342Z,13.27
2022-10-19T09:51:20.796Z,13.10
2022-10-19T09:53:53.571Z,13.85
2022-10-19T09:56:25.733Z,14.00
2022-10-19T09:58:57.460Z,14.93
2022-10-19T10:01:43.082Z,14.05
2022-10-19T10:04:18.102Z,14.73
2022-10-19T10:06:48.144Z,13.82
2022-10-19T10:09:22.028Z,13.18
2022-10-19T10:11:50.508Z,13.23
2022-10-19T10:14:25.568Z,13.32
2022-10-19T10:16:57.189Z,13.27
2022-10-19T10:19:28.471Z,14.35
2022-10-19T10:21:56.432Z,13.50
2022-10-19T10:24:28.684Z,14.80
2022-10-19T10:27:00.925Z,14.38
2022-10-19T10:29:30.677Z,13.95
2022-10-19T10:32:01.275Z,13.68
2022-10-19T10:34:45.629Z,13.68
2022-10-19T10:37:28.221Z,13.57
2022-10-19T10:39:59.171Z,13.43
2022-10-19T10:42:50.270Z,12.70
2022-10-19T10:45:29.273Z,13.55
2022-10-19T10:47:56.953Z,13.85
2022-10-19T10:50:27.671Z,13.90
2022-10-19T10:53:02.742Z,13.25
2022-10-19T10:55:30.973Z,12.70
2022-10-19T10:58:09.284Z,13.57
2022-10-19T11:00:40.098Z,12.90
2022-10-19T11:03:28.755Z,12.35
2022-10-19T11:05:58.434Z,12.57
2022-10-19T11:08:33.532Z,13.20
2022-10-19T11:10:59.932Z,14.02
2022-10-19T11:13:36.242Z,13.63
2022-10-19T11:16:35.309Z,12.57
2022-10-19T11:19:21.783Z,12.90
2022-10-19T11:22:05.523Z,13.85
2022-10-19T11:24:48.682Z,12.85
2022-10-19T11:27:34.327Z,14.23
2022-10-19T11:30:21.945Z,13.45
2022-10-19T11:33:03.686Z,14.30
2022-10-19T11:35:52.821Z,12.95
2022-10-19T11:38:35.893Z,14.13
2022-10-19T11:41:30.664Z,13.70
2022-10-19T11:44:12.256Z,14.05
2022-10-19T11:47:07.986Z,13.52
2022-10-19T11:49:52.439Z,13.55
2022-10-19T11:52:34.973Z,12.75
2022-10-19T11:55:22.811Z,13.27
2022-10-19T12:00:44.370Z,13.35
2022-10-19T12:03:45.930Z,13.27
2022-10-19T12:06:35.991Z,13.95
2022-10-19T12:09:24.420Z,12.68
2022-10-19T12:12:23.693Z,12.75
2022-10-19T12:14:55.965Z,12.35
2022-10-19T12:17:30.495Z,12.25
2022-10-19T12:20:03.151Z,12.50
2022-10-19T12:22:31.241Z,13.15
2022-10-19T12:25:01.068Z,13.75
2022-10-19T12:27:35.716Z,13.95
2022-10-19T12:30:27.608Z,13.60
2022-10-19T12:33:17.760Z,14.20
2022-10-19T12:35:57.729Z,14.07
2022-10-19T12:39:00.628Z,13.63
2022-10-19T12:41:39.879Z,13.90
2022-10-19T12:44:35.564Z,14.13
2022-10-19T12:47:11.725Z,14.23
2022-10-19T12:49:45.643Z,14.13
2022-10-19T12:52:13.902Z,14.73
2022-10-19T12:54:43.189Z,14.52
2022-10-19T12:57:28.704Z,16.38
2022-10-19T13:00:01.260Z,17.70
2022-10-19T13:05:00.241Z,16.88
2022-10-19T13:07:29.818Z,17.35
2022-10-19T13:10:05.753Z,17.55
2022-10-19T13:12:44.603Z,18.10
2022-10-19T13:15:36.124Z,18.77
2022-10-19T13:18:14.079Z,18.63
2022-10-19T13:23:11.908Z,17.52
2022-10-19T13:28:11.100Z,17.40
2022-10-19T13:31:02.452Z,17.80
2022-10-19T13:33:44.145Z,18.33
2022-10-19T13:36:12.041Z,18.25
2022-10-19T13:38:50.616Z,20.10
2022-10-19T13:41:28.488Z,19.85
2022-10-19T13:44:03.850Z,17.95
2022-10-19T13:46:30.228Z,18.80
2022-10-19T13:49:20.505Z,19.58
2022-10-19T13:52:36.347Z,18.50
2022-10-19T13:55:11.681Z,18.63
2022-10-19T13:58:14.068Z,18.52
2022-10-19T14:01:09.052Z,19.83
2022-10-19T14:03:54.565Z,18.50
2022-10-19T14:06:36.242Z,19.05
2022-10-19T14:09:23.883Z,18.88
2022-10-19T14:14:20.184Z,19.45
2022-10-19T14:16:57.110Z,21.45
2022-10-19T14:19:30.496Z,19.90
2022-10-19T14:21:59.802Z,20.15
2022-10-19T14:24:35.281Z,20.10
2022-10-19T14:27:04.756Z,19.38
2022-10-19T14:29:42.602Z,20.48
2022-10-19T14:32:11.070Z,20.40
2022-10-19T14:34:43.367Z,20.80
2022-10-19T14:37:26.390Z,18.42
2022-10-19T14:40:04.849Z,17.42
2022-10-19T14:42:59.479Z,19.42
2022-10-19T14:45:28.906Z,19.55
2022-10-19T14:48:04.329Z,18.58
2022-10-19T14:50:44.899Z,17.25
2022-10-19T14:53:39.401Z,19.48
2022-10-19T14:56:12.036Z,19.65
2022-10-19T14:58:46.171Z,17.23
2022-10-19T15:01:12.905Z,18.50
2022-10-19T15:03:43.653Z,18.02
2022-10-19T15:06:19.121Z,17.65
2022-10-19T15:08:50.897Z,18.08
2022-10-19T15:11:30.128Z,16.48
2022-10-19T15:13:58.945Z,16.55
2022-10-19T15:16:51.691Z,17.83
2022-10-19T15:19:31.976Z,17.55
2022-10-19T15:22:19.858Z,18.83
2022-10-19T15:25:07.499Z,18.70
2022-10-19T15:30:26.250Z,19.45
2022-10-19T15:33:10.430Z,18.80
2022-10-19T15:35:39.369Z,18.20
2022-10-19T15:38:20.468Z,18.10
2022-10-19T15:40:48.190Z,17.75
2022-10-19T15:43:37.841Z,19.20
2022-10-19T15:46:07.136Z,18.95
2022-10-19T15:48:48.112Z,17.67
2022-10-19T15:51:25.578Z,17.77
2022-10-19T15:53:56.070Z,15.77
2022-10-19T15:56:25.297Z,16.23
2022-10-19T15:58:54.306Z,17.67
2022-10-19T16:01:23.459Z,17.20
2022-10-19T16:03:50.306Z,17.08
2022-10-19T16:06:18.128Z,18.05
2022-10-19T16:08:48.083Z,17.08
2022-10-19T16:11:16.965Z,17.25
2022-10-19T16:13:43.771Z,16.85
2022-10-19T16:16:14.692Z,16.50
2022-10-19T16:18:41.338Z,15.63
2022-10-19T16:23:39.301Z,15.18
2022-10-19T16:26:08.397Z,12.95
2022-10-19T16:28:34.809Z,14.20
2022-10-19T16:31:01.336Z,13.65
2022-10-19T16:35:54.190Z,13.32
2022-10-19T16:40:47.050Z,15.15
2022-10-19T16:45:43.506Z,15.90
2022-10-19T16:48:12.736Z,16.65
2022-10-19T16:50:39.641Z,15.45
2022-10-19T16:55:37.655Z,14.02
2022-10-19T16:58:04.092Z,12.57
2022-10-19T17:02:57.087Z,12.68
2022-10-19T17:07:50.140Z,12.75
2022-10-19T17:12:43.237Z,12.80
2022-10-19T17:15:40.995Z,13.30
2022-10-19T17:17:57.954Z,13.68
2022-10-19T17:20:24.420Z,13.80
2022-10-19T17:25:20.400Z,14.13
2022-10-19T17:30:16.843Z,13.70
2022-10-19T17:32:43.256Z,16.10
2022-10-19T17:35:10.180Z,14.80
2022-10-19T17:37:36.936Z,14.57
2022-10-19T17:40:04.020Z,14.20
2022-10-19T17:42:33.836Z,15.27
2022-10-19T17:45:00.420Z,15.02
2022-10-19T17:47:26.864Z,14.40
2022-10-19T17:52:19.694Z,16.15
2022-10-19T17:55:00.563Z,15.98
2022-10-19T17:57:35.489Z,14.73
2022-10-19T18:00:02.237Z,14.80
2022-10-19T18:02:39.805Z,15.07
2022-10-19T18:05:06.576Z,13.45
2022-10-19T18:07:34.944Z,13.70
2022-10-19T18:10:01.972Z,11.77
2022-10-19T18:12:28.459Z,14.00
2022-10-19T18:17:24.113Z,11.80
2022-10-19T18:19:53.571Z,15.88
2022-10-19T18:24:49.488Z,13.13
2022-10-19T18:27:16.248Z,11.88
2022-10-19T18:29:42.883Z,11.77
2022-10-19T18:32:09.360Z,12.85
2022-10-19T18:37:02.290Z,11.10
2022-10-19T18:41:55.400Z,10.35
2022-10-19T18:44:26.405Z,11.23
2022-10-19T18:46:55.479Z,11.23
2022-10-19T18:49:22.115Z,12.95
2022-10-19T18:51:54.070Z,13.40
2022-10-19T18:54:22.588Z,15.15
2022-10-19T18:56:49.440Z,16.27
2022-10-19T18:59:16.327Z,14.85
2022-10-19T19:01:42.906Z,13.45
2022-10-19T19:04:10.181Z,13.48
2022-10-19T19:06:38.501Z,14.45
2022-10-19T19:09:09.250Z,14.40
2022-10-19T19:11:38.501Z,13.30
2022-10-19T19:14:13.217Z,15.20
2022-10-19T19:16:42.030Z,15.32
2022-10-19T19:19:09.975Z,15.00
2022-10-19T19:21:36.590Z,14.48
2022-10-19T19:24:05.963Z,14.05
2022-10-19T19:26:36.840Z,14.68
2022-10-19T19:29:03.756Z,14.00
2022-10-19T19:31:30.244Z,14.25
2022-10-19T19:36:25.673Z,12.85
2022-10-19T19:41:20.727Z,14.43
2022-10-19T19:43:47.484Z,13.07
2022-10-19T19:46:16.652Z,14.02
2022-10-19T19:48:45.487Z,14.43
2022-10-19T19:51:15.100Z,12.05
2022-10-19T19:53:42.293Z,13.93
2022-10-19T19:56:10.706Z,12.70
2022-10-19T19:58:37.500Z,12.80
2022-10-19T20:01:19.028Z,12.82
2022-10-19T20:03:46.587Z,12.48
2022-10-19T20:06:15.003Z,12.60
2022-10-19T20:08:41.701Z,11.73
2022-10-19T20:11:10.643Z,12.55
2022-10-19T20:13:37.854Z,11.43
2022-10-19T20:16:09.073Z,10.93
2022-10-19T20:18:35.523Z,11.45
2022-10-19T20:21:02.837Z,11.45
2022-10-19T20:23:29.953Z,10.98
2022-10-19T20:25:56.682Z,11.20
2022-10-19T20:28:24.639Z,11.75
2022-10-19T20:31:04.852Z,11.73
2022-10-19T20:33:33.532Z,11.25
2022-10-19T20:36:08.703Z,11.55
2022-10-19T20:38:38.425Z,12.50
2022-10-19T20:41:08.226Z,10.60
2022-10-19T20:43:38.595Z,10.60
2022-10-19T20:46:12.065Z,10.63
2022-10-19T20:48:40.170Z,12.60
2022-10-19T20:51:15.731Z,11.65
2022-10-19T20:53:46.193Z,14.02
2022-10-19T20:56:14.394Z,14.15
2022-10-19T20:58:43.269Z,14.50
2022-10-19T21:01:13.581Z,13.13
2022-10-19T21:03:44.844Z,13.75
2022-10-19T21:06:11.264Z,14.20
2022-10-19T21:08:37.701Z,13.93
2022-10-19T21:13:54.491Z,13.52
2022-10-19T21:16:22.605Z,12.73
2022-10-19T21:18:49.927Z,13.00
2022-10-19T21:21:27.444Z,13.57
2022-10-19T21:23:56.837Z,13.82
2022-10-19T21:26:27.678Z,13.40
2022-10-19T21:28:55.029Z,14.50
2022-10-19T21:31:23.885Z,12.55
2022-10-19T21:33:51.718Z,12.20
2022-10-19T21:36:19.698Z,12.98
2022-10-19T21:38:46.840Z,13.05
2022-10-19T21:41:20.963Z,11.32
2022-10-19T21:46:18.997Z,11.73
2022-10-19T21:48:46.098Z,11.95
2022-10-19T21:51:28.551Z,13.02
2022-10-19T21:53:54.988Z,11.27
2022-10-19T21:56:21.411Z,11.93
2022-10-19T21:58:52.676Z,11.10
2022-10-19T22:01:21.647Z,10.93
2022-10-19T22:03:48.234Z,11.68
2022-10-19T22:08:45.090Z,10.63
2022-10-19T22:11:13.481Z,10.57
2022-10-19T22:13:40.403Z,11.10
2022-10-19T22:16:13.374Z,10.77
2022-10-19T22:18:39.874Z,10.85
2022-10-19T22:21:09.337Z,11.05
2022-10-19T22:23:35.814Z,11.50
2022-10-19T22:26:02.186Z,11.43
2022-10-19T22:28:28.906Z,10.80
2022-10-19T22:30:57.334Z,11.40
2022-10-19T22:33:25.163Z,11.50
2022-10-19T22:35:59.922Z,10.60
2022-10-19T22:38:28.299Z,10.55
2022-10-19T22:40:54.713Z,10.80
2022-10-19T22:43:21.143Z,10.80
2022-10-19T22:45:48.651Z,10.70
2022-10-19T22:48:16.480Z,11.15
2022-10-19T22:50:43.135Z,11.25
2022-10-19T22:53:09.700Z,10.52
2022-10-19T22:58:04.495Z,10.38
2022-10-19T23:00:31.428Z,10.63
2022-10-19T23:02:58.025Z,10.80
2022-10-19T23:07:50.783Z,9.82
2022-10-19T23:10:17.358Z,10.77
2022-10-19T23:12:43.834Z,10.30
2022-10-19T23:15:10.546Z,10.35
2022-10-19T23:17:37.391Z,9.90
2022-10-19T23:20:04.465Z,10.32
2022-10-19T23:22:30.887Z,10.43
2022-10-19T23:24:57.249Z,9.52
2022-10-19T23:27:23.707Z,10.52
2022-10-19T23:29:50.129Z,9.85
2022-10-19T23:32:16.532Z,10.13
2022-10-19T23:34:44.613Z,8.80
2022-10-19T23:37:13.877Z,8.38
2022-10-19T23:39:40.337Z,9.32
2022-10-19T23:44:35.417Z,10.27
2022-10-19T23:47:01.807Z,9.20
2022-10-19T23:49:28.218Z,10.40
2022-10-19T23:51:54.710Z,10.48
2022-10-19T23:54:23.593Z,9.95
2022-10-19T23:56:49.995Z,9.48
2022-10-19T23:59:16.392Z,8.55
